Time;durP1;ratioP1;P1;durP2;ratioP2;P2;SDS_P1;SDS_P2;PMS_P1;PMS_P2;Temp;Humidity;BMP_temperature;BMP_pressure;BME280_temperature;BME280_humidity;BME280_pressure;Samples;Min_cycle;Max_cycle;Signal;HPM_P1;HPM_P2
2023/08/21 00:00:45;;;;;;;1.20;1.10;;;;;;;22.51;61.24;97179.34;10494758;28;20036;-29
2023/08/21 00:05:46;;;;;;;0.97;0.97;;;;;;;22.55;61.19;97192.06;10489551;28;20453;-30
2023/08/21 00:10:46;;;;;;;0.80;0.80;;;;;;;22.54;61.20;97187.81;10494234;28;20376;-29
2023/08/21 00:15:47;;;;;;;0.90;0.90;;;;;;;22.56;61.33;97190.38;10485963;28;20035;-29
2023/08/21 00:20:47;;;;;;;0.90;0.90;;;;;;;22.54;61.32;97185.28;10490303;28;20709;-30
2023/08/21 00:25:48;;;;;;;1.20;1.10;;;;;;;22.53;61.28;97178.47;10491729;28;20032;-30
2023/08/21 00:30:48;;;;;;;0.77;0.77;;;;;;;22.53;61.39;97178.47;10485497;28;20059;-29
2023/08/21 00:35:48;;;;;;;0.73;0.73;;;;;;;22.52;61.33;97175.94;10491957;28;20438;-30
2023/08/21 00:40:51;;;;;;;0.80;0.80;;;;;;;22.52;61.32;97174.25;10489603;28;20038;-30
2023/08/21 00:45:51;;;;;;;0.82;0.82;;;;;;;22.56;61.17;97178.44;10484862;28;20063;-29
2023/08/21 00:50:52;;;;;;;0.75;0.70;;;;;;;22.55;61.28;97181.03;10491384;28;20071;-29
2023/08/21 00:55:52;;;;;;;0.70;0.70;;;;;;;22.55;61.27;97175.94;10487643;28;20314;-29
2023/08/21 01:00:53;;;;;;;0.75;0.75;;;;;;;22.51;61.11;97170.00;10492315;28;20422;-30
2023/08/21 01:05:54;;;;;;;0.80;0.80;;;;;;;22.56;61.28;97177.63;10490640;28;20025;-29
2023/08/21 01:11:09;;;;;;;0.80;0.80;;;;;;;22.55;61.14;97176.75;10489592;28;20427;-30
2023/08/21 01:16:11;;;;;;;0.80;0.80;;;;;;;22.55;61.20;97179.31;10482846;28;20525;-29
2023/08/21 01:21:12;;;;;;;0.90;0.90;;;;;;;22.54;61.28;97172.53;10483618;28;20032;-29
2023/08/21 01:26:12;;;;;;;0.93;0.90;;;;;;;22.55;61.22;97179.31;10484273;28;20028;-30
2023/08/21 01:31:26;;;;;;;1.00;1.00;;;;;;;22.54;61.08;97175.06;10489220;28;20086;-29
2023/08/21 01:36:28;;;;;;;0.90;0.90;;;;;;;22.57;61.25;97184.41;10490368;28;20028;-29
2023/08/21 01:41:29;;;;;;;0.82;0.80;;;;;;;22.53;61.23;97175.94;10483352;28;20043;-29
2023/08/21 01:46:29;;;;;;;0.80;0.80;;;;;;;22.56;61.47;97175.91;10491381;28;20040;-31
2023/08/21 01:51:29;;;;;;;0.77;0.77;;;;;;;22.55;61.15;97174.22;10487875;28;20298;-30
2023/08/21 01:56:30;;;;;;;0.90;0.90;;;;;;;22.57;61.27;97169.09;10490181;28;20047;-29
2023/08/21 02:01:30;;;;;;;5.63;0.97;;;;;;;22.55;61.15;97166.56;10488888;28;20411;-29
2023/08/21 02:06:30;;;;;;;0.93;0.93;;;;;;;22.55;61.13;97163.16;10494506;28;20171;-30
2023/08/21 02:11:32;;;;;;;0.80;0.80;;;;;;;22.53;61.16;97160.63;10497850;28;21994;-30
2023/08/21 02:16:32;;;;;;;0.80;0.80;;;;;;;22.55;61.09;97150.41;10495456;28;20051;-29
2023/08/21 02:21:34;;;;;;;1.23;1.13;;;;;;;22.54;61.22;97148.69;10498642;28;20403;-29
2023/08/21 02:26:34;;;;;;;0.90;0.90;;;;;;;22.56;61.08;97152.09;10491503;28;20420;-30
2023/08/21 02:31:35;;;;;;;0.80;0.80;;;;;;;22.56;61.14;97152.94;10496884;28;20082;-29
2023/08/21 02:36:35;;;;;;;0.97;0.97;;;;;;;22.56;61.13;97147.81;10489652;28;20032;-29
2023/08/21 02:41:36;;;;;;;0.80;0.80;;;;;;;22.56;61.04;97152.94;10494917;28;20818;-29
2023/08/21 02:46:36;;;;;;;0.70;0.70;;;;;;;22.56;61.12;97152.94;10496530;28;20044;-30
2023/08/21 02:51:38;;;;;;;0.80;0.80;;;;;;;22.56;61.45;97147.00;10490395;28;20103;-30
2023/08/21 02:56:38;;;;;;;0.73;0.73;;;;;;;22.53;61.08;97137.66;10496204;28;20037;-30
2023/08/21 03:01:38;;;;;;;0.90;0.90;;;;;;;22.57;61.11;97148.69;10494712;28;20309;-30
2023/08/21 03:06:39;;;;;;;1.20;0.93;;;;;;;22.51;61.22;97147.03;10495869;28;20069;-29
2023/08/21 03:11:39;;;;;;;0.80;0.80;;;;;;;22.56;61.11;97157.19;10489593;28;20033;-29
2023/08/21 03:16:40;;;;;;;0.90;0.90;;;;;;;22.57;61.08;97166.53;10491215;28;20093;-30
2023/08/21 03:21:40;;;;;;;0.95;0.95;;;;;;;22.56;61.09;97167.41;10495069;28;20037;-30
2023/08/21 03:26:40;;;;;;;0.80;0.80;;;;;;;22.57;61.12;97179.31;10488484;28;20110;-30
2023/08/21 03:31:41;;;;;;;0.80;0.80;;;;;;;22.55;61.14;97179.31;10494876;28;20290;-30
2023/08/21 03:36:42;;;;;;;1.10;1.00;;;;;;;22.56;61.01;97186.09;10488766;28;20044;-30
2023/08/21 03:41:42;;;;;;;0.93;0.93;;;;;;;22.55;61.19;97188.69;10487819;28;20028;-30
2023/08/21 03:46:43;;;;;;;0.95;0.95;;;;;;;22.55;61.06;97186.97;10494727;28;20044;-29
2023/08/21 03:51:44;;;;;;;1.00;1.00;;;;;;;22.56;60.97;97193.75;10494052;28;20123;-30
2023/08/21 03:56:44;;;;;;;0.83;0.83;;;;;;;22.53;61.04;97193.78;10488760;28;20478;-29
2023/08/21 04:01:45;;;;;;;0.93;0.90;;;;;;;22.56;61.05;97203.13;10493327;28;20445;-30
2023/08/21 04:06:45;;;;;;;0.77;0.77;;;;;;;22.55;60.87;97204.84;10492247;28;20394;-29
2023/08/21 04:11:46;;;;;;;0.80;0.80;;;;;;;22.51;61.02;97200.63;10486258;28;20024;-29
2023/08/21 04:16:46;;;;;;;0.87;0.87;;;;;;;22.53;60.86;97204.00;10494576;28;20086;-30
2023/08/21 04:21:47;;;;;;;0.80;0.80;;;;;;;22.53;61.01;97203.16;10485935;28;20040;-29
2023/08/21 04:26:47;;;;;;;0.83;0.83;;;;;;;22.56;61.03;97211.63;10492074;28;20032;-30
2023/08/21 04:31:47;;;;;;;0.70;0.70;;;;;;;22.57;60.92;97210.75;10483121;28;20028;-30
2023/08/21 04:36:49;;;;;;;0.80;0.80;;;;;;;22.59;61.35;97219.28;10492148;28;20282;-29
2023/08/21 04:41:49;;;;;;;0.80;0.80;;;;;;;22.57;61.12;97213.31;10491065;28;20293;-30
2023/08/21 04:46:52;;;;;;;0.93;0.93;;;;;;;22.57;61.07;97215.88;10488931;28;20169;-30
2023/08/21 04:51:52;;;;;;;1.00;1.00;;;;;;;22.57;60.85;97225.25;10487150;28;20073;-30
2023/08/21 04:56:53;;;;;;;0.57;0.57;;;;;;;22.57;60.91;97231.19;10488881;28;20025;-30
2023/08/21 05:01:54;;;;;;;1.00;1.00;;;;;;;22.56;60.94;97228.66;10490898;28;20028;-30
2023/08/21 05:06:54;;;;;;;1.02;0.90;;;;;;;22.56;60.93;97229.50;10490007;28;20035;-30
2023/08/21 05:11:55;;;;;;;0.80;0.80;;;;;;;22.57;61.00;97238.84;10486615;28;20025;-29
2023/08/21 05:16:56;;;;;;;0.88;0.88;;;;;;;22.57;60.88;97236.28;10486548;28;20028;-29
2023/08/21 05:21:56;;;;;;;0.70;0.70;;;;;;;22.58;60.88;97237.16;10483572;28;20036;-29
2023/08/21 05:26:57;;;;;;;0.77;0.77;;;;;;;22.57;60.87;97241.38;10490639;28;20308;-30
2023/08/21 05:31:57;;;;;;;0.87;0.87;;;;;;;22.58;60.89;97242.25;10483922;28;20030;-30
2023/08/21 05:36:58;;;;;;;0.80;0.80;;;;;;;22.58;60.89;97248.19;10488989;28;20036;-29
2023/08/21 05:42:02;;;;;;;0.73;0.73;;;;;;;22.57;60.88;97238.00;10490746;28;20124;-29
2023/08/21 05:47:02;;;;;;;0.90;0.90;;;;;;;22.57;60.98;97243.94;10481048;28;20029;-29
2023/08/21 05:52:03;;;;;;;1.05;0.95;;;;;;;22.58;60.90;97243.06;10489078;28;20381;-29
2023/08/21 05:57:04;;;;;;;1.63;0.70;;;;;;;22.58;61.01;97243.06;10490057;28;20029;-29
2023/08/21 06:02:05;;;;;;;0.77;0.77;;;;;;;22.57;61.00;97241.38;10486249;28;20487;-29
2023/08/21 06:07:06;;;;;;;1.10;1.00;;;;;;;22.58;60.89;97245.63;10489837;28;20036;-29
2023/08/21 06:12:07;;;;;;;0.60;0.60;;;;;;;22.58;61.04;97243.06;10482150;28;20032;-29
2023/08/21 06:17:09;;;;;;;0.77;0.77;;;;;;;22.58;60.85;97242.25;10486588;28;20032;-29
2023/08/21 06:22:09;;;;;;;1.20;1.10;;;;;;;22.55;60.87;97243.13;10489159;28;20396;-30
2023/08/21 06:27:10;;;;;;;0.80;0.80;;;;;;;22.58;60.92;97250.72;10483531;28;20219;-30
2023/08/21 06:32:10;;;;;;;1.00;0.90;;;;;;;22.60;60.96;97260.94;10489351;28;20096;-30
2023/08/21 06:37:12;;;;;;;0.70;0.70;;;;;;;22.60;61.36;97260.94;10480491;28;20037;-30
2023/08/21 06:42:13;;;;;;;1.13;0.85;;;;;;;22.61;61.25;97258.38;10488908;28;20028;-30
2023/08/21 06:47:20;;;;;;;1.40;1.10;;;;;;;22.58;61.12;97258.41;10487948;28;20037;-30
2023/08/21 06:52:20;;;;;;;0.80;0.80;;;;;;;22.60;61.02;97256.69;10483307;28;20024;-29
2023/08/21 06:57:20;;;;;;;1.20;1.10;;;;;;;22.61;61.26;97260.09;10497930;28;20035;-30
2023/08/21 07:02:21;;;;;;;1.10;0.97;;;;;;;22.61;61.21;97260.94;10489265;28;20028;-29
2023/08/21 07:07:21;;;;;;;1.20;1.10;;;;;;;22.60;61.16;97258.41;10497354;28;20483;-30
2023/08/21 07:12:22;;;;;;;0.80;0.80;;;;;;;22.61;61.06;97263.50;10488183;28;20291;-29
2023/08/21 07:17:22;;;;;;;0.77;0.77;;;;;;;22.61;61.14;97250.72;10491778;28;20286;-31
2023/08/21 07:22:23;;;;;;;0.70;0.70;;;;;;;22.61;61.08;97258.38;10492800;28;20044;-30
2023/08/21 07:27:23;;;;;;;0.80;0.80;;;;;;;22.57;61.00;97250.78;10494773;28;20505;-29
2023/08/21 07:32:24;;;;;;;0.93;0.90;;;;;;;22.57;61.51;97253.31;10492871;28;20036;-30
2023/08/21 07:37:24;;;;;;;0.80;0.80;;;;;;;22.60;61.13;97259.25;10496435;28;20834;-29
2023/08/21 07:42:24;;;;;;;0.80;0.80;;;;;;;22.62;61.04;97267.75;10493523;28;20031;-29
2023/08/21 07:47:27;;;;;;;0.93;0.93;;;;;;;22.63;61.04;97261.78;10495861;28;20044;-30
2023/08/21 07:52:27;;;;;;;0.80;0.80;;;;;;;22.56;61.28;97259.28;10493845;28;20043;-30
2023/08/21 07:57:28;;;;;;;0.83;0.83;;;;;;;22.63;61.20;97277.09;10489200;28;20495;-30
2023/08/21 08:02:29;;;;;;;0.90;0.90;;;;;;;22.63;61.14;97271.97;10492802;28;20029;-29
2023/08/21 08:07:29;;;;;;;0.97;0.97;;;;;;;22.64;61.14;97278.78;10487118;28;20040;-29
2023/08/21 08:12:33;;;;;;;0.90;0.90;;;;;;;22.64;61.09;97277.94;10494669;28;20031;-30
2023/08/21 08:17:33;;;;;;;0.77;0.77;;;;;;;22.63;61.13;97279.63;10490893;28;20041;-29
2023/08/21 08:22:33;;;;;;;0.90;0.90;;;;;;;22.64;61.11;97276.22;10488023;28;20041;-30
2023/08/21 08:27:34;;;;;;;1.03;0.93;;;;;;;22.64;60.90;97278.78;10494253;28;20032;-29
2023/08/21 08:32:34;;;;;;;0.80;0.80;;;;;;;22.60;61.15;97272.00;10491859;28;20028;-29
2023/08/21 08:37:35;;;;;;;0.85;0.85;;;;;;;22.64;61.11;97268.56;10493797;28;20275;-30
2023/08/21 08:42:36;;;;;;;0.90;0.90;;;;;;;22.64;61.06;97276.22;10490508;28;20048;-30
2023/08/21 08:47:36;;;;;;;0.75;0.75;;;;;;;22.61;61.18;97268.59;10492364;28;20089;-29
2023/08/21 08:52:40;;;;;;;0.70;0.70;;;;;;;22.66;61.25;97273.66;10492025;28;20037;-29
2023/08/21 08:57:40;;;;;;;0.70;0.70;;;;;;;22.65;60.98;97259.22;10491410;28;20033;-29
2023/08/21 09:02:41;;;;;;;1.10;1.10;;;;;;;22.65;61.07;97264.31;10492580;28;20518;-29
2023/08/21 09:07:42;;;;;;;0.83;0.80;;;;;;;22.66;61.25;97269.38;10488671;28;20094;-29
2023/08/21 09:12:45;;;;;;;1.10;1.00;;;;;;;22.66;61.18;97269.38;10490721;28;20283;-29
2023/08/21 09:17:53;;;;;;;1.30;1.20;;;;;;;22.66;61.18;97266.84;10484163;28;20028;-29
2023/08/21 09:22:57;;;;;;;1.23;1.13;;;;;;;22.65;61.19;97260.03;10483000;28;20064;-29
2023/08/21 09:27:57;;;;;;;1.08;1.00;;;;;;;22.67;61.59;97263.47;10492155;28;20394;-29
2023/08/21 09:33:04;;;;;;;1.20;1.20;;;;;;;22.66;61.13;97256.63;10489424;28;20035;-30
2023/08/21 09:38:06;;;;;;;1.02;1.02;;;;;;;22.68;61.41;97260.03;10491781;28;20470;-28
2023/08/21 09:43:10;;;;;;;0.80;0.80;;;;;;;22.68;61.39;97254.94;10487579;28;20040;-30
2023/08/21 09:48:11;;;;;;;1.20;1.10;;;;;;;22.67;61.34;97257.50;10484349;28;20567;-29
2023/08/21 09:53:12;;;;;;;0.85;0.80;;;;;;;22.66;61.34;97246.41;10491220;28;20082;-30
2023/08/21 09:58:13;;;;;;;2.35;1.15;;;;;;;22.67;62.41;97248.13;10487916;28;20388;-29
2023/08/21 10:03:19;;;;;;;1.13;1.05;;;;;;;22.67;61.60;97237.94;10491288;28;20029;-29
2023/08/21 10:08:24;;;;;;;1.48;1.38;;;;;;;22.69;61.66;97246.41;10488761;28;20050;-30
2023/08/21 10:13:25;;;;;;;1.47;1.37;;;;;;;22.69;61.45;97236.19;10490976;28;20032;-29
2023/08/21 10:18:31;;;;;;;1.45;1.35;;;;;;;22.69;61.41;97231.09;10488021;28;20398;-29
2023/08/21 10:23:31;;;;;;;2.13;1.97;;;;;;;22.69;61.33;97231.09;10486236;28;20119;-29
2023/08/21 10:28:55;;;;;;;2.53;2.33;;;;;;;22.70;61.28;97227.69;10497481;28;20426;-30
2023/08/21 10:33:56;;;;;;;3.08;2.85;;;;;;;22.69;61.69;97220.88;10495216;28;20036;-30
2023/08/21 10:39:00;;;;;;;3.70;2.90;;;;;;;22.70;61.52;97221.72;10497341;28;20037;-29
2023/08/21 10:44:02;;;;;;;9.23;3.88;;;;;;;22.72;61.66;97220.03;10490974;28;20086;-30
2023/08/21 10:49:03;;;;;;;5.47;3.83;;;;;;;22.72;61.55;97218.28;10489953;28;20059;-30
2023/08/21 10:54:13;;;;;;;3.65;3.25;;;;;;;22.72;61.70;97212.38;10497488;28;20052;-30
2023/08/21 10:59:14;;;;;;;4.82;3.95;;;;;;;22.73;61.95;97202.13;10493623;28;20041;-29
2023/08/21 11:04:14;;;;;;;4.80;3.90;;;;;;;22.73;61.87;97206.38;10497205;28;20422;-29
2023/08/21 11:09:16;;;;;;;5.60;4.43;;;;;;;22.74;62.00;97210.63;10495709;28;20482;-29
2023/08/21 11:14:16;;;;;;;5.32;4.43;;;;;;;22.74;61.60;97203.81;10495230;28;20050;-29
2023/08/21 11:19:17;;;;;;;4.37;3.93;;;;;;;22.75;62.00;97204.66;10497226;28;20031;-30
2023/08/21 11:24:17;;;;;;;4.60;4.00;;;;;;;22.75;61.97;97207.22;10493108;28;20032;-30
2023/08/21 11:29:17;;;;;;;5.47;3.70;;;;;;;22.74;62.09;97203.81;10496560;28;20029;-29
2023/08/21 11:34:19;;;;;;;4.23;3.93;;;;;;;22.73;62.23;97201.28;10490155;28;20048;-30
2023/08/21 11:39:19;;;;;;;4.25;3.85;;;;;;;22.72;62.33;97197.88;10494874;28;20037;-29
2023/08/21 11:44:20;;;;;;;4.63;4.13;;;;;;;22.75;62.34;97200.38;10487661;28;20031;-30
2023/08/21 11:49:22;;;;;;;4.73;4.23;;;;;;;22.71;62.37;97183.41;10489202;28;20029;-30
2023/08/21 11:54:22;;;;;;;5.80;4.80;;;;;;;22.76;62.32;97188.47;10495822;28;20283;-30
2023/08/21 11:59:23;;;;;;;4.27;3.90;;;;;;;22.74;62.38;97178.28;10488174;28;20036;-29
2023/08/21 12:04:24;;;;;;;4.25;3.88;;;;;;;22.76;62.37;97181.69;10494834;28;20055;-30
2023/08/21 12:09:25;;;;;;;4.65;4.25;;;;;;;22.77;62.28;97183.38;10486087;28;20494;-29
2023/08/21 12:14:28;;;;;;;4.00;3.70;;;;;;;22.75;62.15;97177.41;10494656;28;20033;-29
2023/08/21 12:19:28;;;;;;;4.32;3.92;;;;;;;22.76;62.69;97178.28;10490702;28;20033;-30
2023/08/21 12:24:29;;;;;;;3.85;3.55;;;;;;;22.78;63.04;97169.75;10489843;28;20025;-29
2023/08/21 12:29:30;;;;;;;4.15;3.85;;;;;;;22.78;62.34;97168.88;10494451;28;20497;-29
2023/08/21 12:34:30;;;;;;;4.33;4.03;;;;;;;22.76;62.42;97151.03;10485138;28;20090;-29
2023/08/21 12:39:30;;;;;;;5.13;3.60;;;;;;;22.78;62.49;97158.66;10493804;28;20085;-29
2023/08/21 12:44:31;;;;;;;4.83;4.43;;;;;;;22.74;62.29;97141.69;10488997;28;20036;-30
2023/08/21 12:49:31;;;;;;;4.37;3.67;;;;;;;22.77;62.16;97145.06;10492968;28;20063;-29
2023/08/21 12:54:32;;;;;;;4.35;3.95;;;;;;;22.77;62.54;97137.41;10490214;28;20029;-30
2023/08/21 12:59:32;;;;;;;3.70;3.40;;;;;;;22.79;62.22;97134.81;10492026;28;20032;-29
2023/08/21 13:04:32;;;;;;;4.20;3.80;;;;;;;22.79;62.56;97134.81;10492526;28;20033;-30
2023/08/21 13:09:33;;;;;;;4.20;3.80;;;;;;;22.78;62.68;97131.44;10486504;28;20028;-30
2023/08/21 13:14:34;;;;;;;3.67;3.38;;;;;;;22.78;62.69;97128.88;10492062;28;20411;-29
2023/08/21 13:19:34;;;;;;;4.07;3.78;;;;;;;22.76;62.68;97120.41;10483066;28;20036;-30
2023/08/21 13:24:34;;;;;;;3.80;3.50;;;;;;;22.80;62.55;97133.97;10487321;28;20166;-29
2023/08/21 13:29:35;;;;;;;4.33;3.97;;;;;;;22.79;62.68;97125.47;10492117;28;20032;-30
2023/08/21 13:34:35;;;;;;;3.70;3.40;;;;;;;22.81;62.61;97122.91;10484828;28;20042;-29
2023/08/21 13:39:36;;;;;;;3.70;3.40;;;;;;;22.80;62.80;97118.63;10490361;28;20036;-30
2023/08/21 13:44:36;;;;;;;3.90;3.60;;;;;;;22.80;62.96;97124.59;10491435;28;20383;-30
2023/08/21 13:49:36;;;;;;;3.40;3.20;;;;;;;22.82;63.18;97119.50;10483610;28;20490;-29
2023/08/21 13:54:37;;;;;;;6.30;4.23;;;;;;;22.81;62.80;97118.63;10491362;28;20383;-30
2023/08/21 13:59:37;;;;;;;4.37;3.97;;;;;;;22.82;62.81;97115.22;10488567;28;20401;-31
2023/08/21 14:04:37;;;;;;;3.80;3.50;;;;;;;22.79;62.92;97106.75;10499755;28;20028;-30
2023/08/21 14:09:38;;;;;;;3.63;3.33;;;;;;;22.82;63.02;97107.56;10496140;28;20517;-30
2023/08/21 14:14:39;;;;;;;3.97;3.65;;;;;;;22.82;62.74;97110.09;10493771;28;20478;-29
2023/08/21 14:19:39;;;;;;;3.83;3.53;;;;;;;22.83;63.18;97106.69;10499849;28;20115;-30
2023/08/21 14:24:39;;;;;;;4.27;3.63;;;;;;;22.82;62.77;97099.91;10494660;28;20648;-30
2023/08/21 14:29:43;;;;;;;4.10;3.70;;;;;;;22.82;63.30;97105.00;10499152;28;20028;-30
2023/08/21 14:34:43;;;;;;;3.78;3.10;;;;;;;22.84;63.17;97105.00;10493553;28;20127;-30
2023/08/21 14:39:44;;;;;;;3.90;3.53;;;;;;;22.83;62.89;97101.59;10498631;28;20510;-30
2023/08/21 14:44:44;;;;;;;3.85;3.55;;;;;;;22.84;63.28;97103.31;10490538;28;20028;-29
2023/08/21 14:49:47;;;;;;;3.50;3.20;;;;;;;22.84;63.06;97097.34;10495199;28;20471;-30
2023/08/21 14:54:51;;;;;;;3.75;3.45;;;;;;;22.83;63.21;97086.25;10497949;28;20036;-30
2023/08/21 14:59:53;;;;;;;3.78;3.47;;;;;;;22.84;63.28;97087.97;10491010;28;20028;-30
2023/08/21 15:04:54;;;;;;;3.50;3.20;;;;;;;22.84;63.42;97075.22;10497451;28;20029;-29
2023/08/21 15:09:54;;;;;;;3.50;3.20;;;;;;;22.85;63.34;97078.59;10493661;28;20020;-29
2023/08/21 15:14:55;;;;;;;3.53;3.20;;;;;;;22.84;62.92;97075.22;10490004;28;20024;-29
2023/08/21 15:19:55;;;;;;;3.33;3.03;;;;;;;22.85;63.12;97079.47;10496957;28;20040;-29
2023/08/21 15:24:55;;;;;;;3.33;3.03;;;;;;;22.85;62.92;97073.50;10493026;28;20403;-30
2023/08/21 15:29:56;;;;;;;3.87;3.13;;;;;;;22.80;63.12;97060.78;10496407;28;20058;-29
2023/08/21 15:34:56;;;;;;;2.80;2.60;;;;;;;22.84;62.95;97065.00;10493739;28;20033;-29
2023/08/21 15:39:56;;;;;;;3.90;3.60;;;;;;;22.84;63.28;97057.34;10495592;28;20082;-30
2023/08/21 15:44:57;;;;;;;3.60;3.30;;;;;;;22.84;62.93;97062.44;10496229;28;20391;-30
2023/08/21 15:49:57;;;;;;;3.07;2.77;;;;;;;22.85;63.15;97059.03;10487809;28;20387;-29
2023/08/21 15:54:58;;;;;;;3.80;3.30;;;;;;;22.84;62.59;97054.78;10495405;28;20032;-29
2023/08/21 15:59:58;;;;;;;3.23;3.00;;;;;;;22.85;62.95;97053.06;10490692;28;20033;-29
2023/08/21 16:04:58;;;;;;;2.97;2.73;;;;;;;22.86;63.07;97050.50;10495153;28;20687;-29
2023/08/21 16:09:59;;;;;;;3.10;2.90;;;;;;;22.86;62.80;97047.09;10492822;28;20039;-29
2023/08/21 16:14:59;;;;;;;3.00;2.80;;;;;;;22.85;62.90;97048.81;10491657;28;20375;-30
2023/08/21 16:20:04;;;;;;;3.23;3.00;;;;;;;22.86;63.01;97045.41;10494427;28;20471;-30
2023/08/21 16:25:05;;;;;;;2.85;2.65;;;;;;;22.86;62.94;97044.53;10485091;28;20306;-29
2023/08/21 16:30:07;;;;;;;3.03;2.70;;;;;;;22.83;62.66;97035.19;10494264;28;20029;-30
2023/08/21 16:35:07;;;;;;;3.10;2.90;;;;;;;22.85;62.68;97033.50;10488030;28;20663;-30
2023/08/21 16:40:08;;;;;;;2.77;2.57;;;;;;;22.84;62.54;97034.38;10493539;28;20090;-30
2023/08/21 16:45:12;;;;;;;3.42;3.13;;;;;;;22.85;62.51;97025.84;10486151;28;20036;-29
2023/08/21 16:50:13;;;;;;;3.00;2.80;;;;;;;22.85;62.51;97033.50;10492458;28;20437;-31
2023/08/21 16:55:14;;;;;;;2.58;2.45;;;;;;;22.85;62.58;97036.06;10491177;28;20505;-30
2023/08/21 17:00:15;;;;;;;3.20;3.00;;;;;;;22.86;62.45;97035.19;10486763;28;20040;-29
2023/08/21 17:05:15;;;;;;;2.85;2.65;;;;;;;22.86;62.56;97039.44;10492883;28;20034;-30
2023/08/21 17:10:15;;;;;;;2.70;2.50;;;;;;;22.86;62.45;97044.53;10485857;28;20036;-31
2023/08/21 17:15:16;;;;;;;2.90;2.70;;;;;;;22.86;62.39;97042.84;10492793;28;20440;-30
2023/08/21 17:20:19;;;;;;;2.97;2.77;;;;;;;22.86;62.51;97036.88;10485472;28;20028;-30
2023/08/21 17:25:20;;;;;;;2.72;2.53;;;;;;;22.84;62.35;97036.91;10491882;28;20411;-29
2023/08/21 17:30:20;;;;;;;2.70;2.50;;;;;;;22.85;62.24;97041.16;10488782;28;20035;-30
2023/08/21 17:35:20;;;;;;;3.13;2.42;;;;;;;22.86;62.30;97040.28;10492051;28;20121;-30
2023/08/21 17:40:21;;;;;;;3.15;2.80;;;;;;;22.86;62.25;97044.53;10482927;28;20430;-30
2023/08/21 17:45:21;;;;;;;2.73;2.53;;;;;;;22.86;62.46;97045.41;10488223;28;20036;-30
2023/08/21 17:50:24;;;;;;;2.80;2.60;;;;;;;22.85;62.24;97033.50;10490798;28;20760;-30
2023/08/21 17:55:24;;;;;;;2.78;2.58;;;;;;;22.85;62.07;97048.81;10486012;28;20110;-29
2023/08/21 18:00:25;;;;;;;2.23;2.13;;;;;;;22.85;62.06;97048.81;10491270;28;20033;-30
2023/08/21 18:05:28;;;;;;;2.58;2.38;;;;;;;22.85;61.89;97050.50;10485912;28;20244;-30
2023/08/21 18:10:32;;;;;;;2.33;2.13;;;;;;;22.85;61.99;97047.97;10483212;28;20064;-29
2023/08/21 18:15:34;;;;;;;2.33;2.13;;;;;;;22.83;62.06;97055.63;10490947;28;20041;-29
2023/08/21 18:20:54;;;;;;;2.75;2.10;;;;;;;22.85;61.85;97058.16;10488815;28;20121;-30
2023/08/21 18:25:55;;;;;;;2.35;2.13;;;;;;;22.85;61.89;97056.47;10486800;28;20028;-29
2023/08/21 18:30:57;;;;;;;2.45;2.25;;;;;;;22.83;61.77;97052.25;10490842;28;20086;-30
2023/08/21 18:36:00;;;;;;;2.92;2.72;;;;;;;22.84;61.85;97057.34;10482321;28;20269;-29
2023/08/21 18:41:00;;;;;;;2.20;2.00;;;;;;;22.85;61.90;97063.28;10490247;28;20036;-30
2023/08/21 18:46:01;;;;;;;2.23;2.03;;;;;;;22.84;61.79;97067.56;10486479;28;20514;-29
2023/08/21 18:51:01;;;;;;;2.30;2.10;;;;;;;22.84;61.76;97072.66;10497919;28;20032;-30
2023/08/21 18:56:02;;;;;;;2.43;2.23;;;;;;;22.78;61.52;97072.72;10493290;28;20399;-29
2023/08/21 19:01:02;;;;;;;2.33;2.20;;;;;;;22.83;61.67;97086.25;10497476;28;20306;-30
2023/08/21 19:06:02;;;;;;;2.47;2.00;;;;;;;22.83;61.53;97093.09;10489069;28;20043;-29
2023/08/21 19:11:03;;;;;;;2.72;2.53;;;;;;;22.84;61.84;97098.19;10489344;28;20024;-30
2023/08/21 19:16:04;;;;;;;2.50;2.30;;;;;;;22.83;61.75;97101.59;10497259;28;20093;-30
2023/08/21 19:21:04;;;;;;;2.05;1.90;;;;;;;22.83;61.73;97106.69;10494937;28;20299;-31
2023/08/21 19:26:04;;;;;;;2.43;2.27;;;;;;;22.85;61.84;97105.00;10496685;28;20040;-30
2023/08/21 19:31:09;;;;;;;2.40;2.20;;;;;;;22.85;61.74;97105.00;10489569;28;20037;-30
2023/08/21 19:36:13;;;;;;;2.50;2.30;;;;;;;22.84;61.88;97103.31;10496447;28;20025;-30
2023/08/21 19:41:13;;;;;;;2.50;2.30;;;;;;;22.84;61.63;97108.41;10490498;28;20032;-29
2023/08/21 19:46:13;;;;;;;1.90;1.80;;;;;;;22.84;61.70;97112.66;10491711;28;20044;-30
2023/08/21 19:51:14;;;;;;;2.70;1.93;;;;;;;22.84;61.64;97108.41;10495723;28;20033;-30
2023/08/21 19:56:14;;;;;;;1.90;1.77;;;;;;;22.85;61.81;97110.09;10491905;28;20287;-29
2023/08/21 20:01:14;;;;;;;1.93;1.83;;;;;;;22.85;61.50;97119.44;10494318;28;20215;-30
2023/08/21 20:06:15;;;;;;;1.90;1.80;;;;;;;22.84;61.77;97113.50;10487938;28;20036;-29
2023/08/21 20:11:15;;;;;;;2.23;2.03;;;;;;;22.84;61.67;97122.88;10493563;28;20085;-30
2023/08/21 20:16:17;;;;;;;2.03;1.92;;;;;;;22.81;61.43;97116.09;10491605;28;20287;-30
2023/08/21 20:21:20;;;;;;;2.10;2.00;;;;;;;22.84;61.58;97123.72;10487242;28;20075;-28
2023/08/21 20:26:24;;;;;;;1.90;1.80;;;;;;;22.84;61.48;97121.19;10494268;28;20071;-30
2023/08/21 20:31:26;;;;;;;1.83;1.65;;;;;;;22.83;61.54;97122.00;10492347;28;20068;-29
2023/08/21 20:36:26;;;;;;;2.60;1.88;;;;;;;22.85;61.59;97120.31;10488423;28;20554;-29
2023/08/21 20:41:26;;;;;;;2.17;1.97;;;;;;;22.85;61.58;97130.53;10493367;28;20032;-30
2023/08/21 20:46:27;;;;;;;2.13;1.90;;;;;;;22.84;61.60;97118.63;10486851;28;20036;-29
2023/08/21 20:51:28;;;;;;;2.07;1.97;;;;;;;22.85;61.62;97125.41;10492030;28;20089;-30
2023/08/21 20:56:28;;;;;;;2.33;2.13;;;;;;;22.85;61.45;97129.66;10493023;28;20472;-29
2023/08/21 21:01:29;;;;;;;1.90;1.80;;;;;;;22.84;61.52;97128.84;10491246;28;20032;-31
2023/08/21 21:06:29;;;;;;;1.83;1.73;;;;;;;22.85;61.27;97130.53;10492598;28;20040;-30
2023/08/21 21:11:30;;;;;;;1.83;1.73;;;;;;;22.85;61.62;97122.88;10489059;28;20634;-30
2023/08/21 21:16:31;;;;;;;1.73;1.63;;;;;;;22.81;62.10;97123.75;10492599;28;20036;-30
2023/08/21 21:21:31;;;;;;;1.60;1.50;;;;;;;22.85;61.60;97127.97;10486756;28;20045;-30
2023/08/21 21:26:32;;;;;;;1.70;1.60;;;;;;;22.84;61.67;97123.72;10485258;28;20486;-29
2023/08/21 21:31:36;;;;;;;1.88;1.77;;;;;;;22.81;61.51;97116.09;10492386;28;20294;-30
2023/08/21 21:36:41;;;;;;;1.58;1.48;;;;;;;22.85;61.46;97125.41;10489485;28;20115;-30
2023/08/21 21:41:41;;;;;;;1.92;1.83;;;;;;;22.85;61.62;97120.31;10491578;28;20044;-30
2023/08/21 21:46:41;;;;;;;2.17;1.77;;;;;;;22.85;61.52;97115.22;10483439;28;20020;-29
2023/08/21 21:51:42;;;;;;;1.80;1.70;;;;;;;22.85;61.48;97114.34;10483783;28;20028;-30
2023/08/21 21:56:42;;;;;;;1.80;1.70;;;;;;;22.86;61.80;97110.91;10490834;28;20025;-29
2023/08/21 22:01:42;;;;;;;1.60;1.50;;;;;;;22.80;61.77;97093.97;10488037;28;20036;-31
2023/08/21 22:06:44;;;;;;;1.83;1.73;;;;;;;22.85;61.46;97105.00;10491097;28;20291;-29
2023/08/21 22:11:45;;;;;;;1.95;1.85;;;;;;;22.85;61.44;97105.00;10484320;28;20078;-30
2023/08/21 22:16:45;;;;;;;1.90;1.80;;;;;;;22.85;61.37;97115.22;10484996;28;20025;-30
2023/08/21 22:21:46;;;;;;;1.88;1.77;;;;;;;22.85;61.47;97110.09;10492205;28;20032;-30
2023/08/21 22:26:46;;;;;;;1.75;1.65;;;;;;;22.84;61.55;97105.84;10493610;28;20032;-30
2023/08/21 22:31:47;;;;;;;1.77;1.67;;;;;;;22.85;61.45;97101.56;10498654;28;20029;-29
2023/08/21 22:36:47;;;;;;;1.70;1.60;;;;;;;22.85;61.46;97107.53;10491791;28;20059;-29
2023/08/21 22:41:47;;;;;;;1.83;1.73;;;;;;;22.85;61.47;97097.31;10498438;28;20516;-29
2023/08/21 22:46:48;;;;;;;1.40;1.30;;;;;;;22.85;61.45;97089.66;10496918;28;20036;-30
2023/08/21 22:51:51;;;;;;;1.80;1.70;;;;;;;22.84;61.35;97095.66;10494708;28;20344;-29
2023/08/21 22:56:52;;;;;;;1.63;1.52;;;;;;;22.84;61.47;97095.66;10489870;28;20032;-29
2023/08/21 23:01:52;;;;;;;1.77;1.67;;;;;;;22.86;61.32;97099.03;10490275;28;20033;-29
2023/08/21 23:06:52;;;;;;;1.60;1.50;;;;;;;22.84;61.48;97098.19;10498208;28;20037;-30
2023/08/21 23:11:53;;;;;;;1.80;1.70;;;;;;;22.86;61.31;97093.91;10495039;28;20343;-30
2023/08/21 23:16:55;;;;;;;1.70;1.60;;;;;;;22.86;61.45;97085.38;10497098;28;20032;-29